Date,TemperatureHighF,TemperatureAvgF,TemperatureLowF,DewpointHighF,DewpointAvgF,DewpointLowF,HumidityHigh,HumidityAvg,HumidityLow,PressureMaxIn,PressureMinIn,WindSpeedMaxMPH,WindSpeedAvgMPH,GustSpeedMaxMPH,PrecipitationSumIn
2014-1-1,18,10,4,13,4,-4,79,76,70,30.34,30.24,3,0,3,0.00
2014-1-2,21,8,-5,9,1,-11,78,72,56,30.42,30.21,9,2,9,0.00
2014-1-3,18,4,-16,11,-4,-22,79,72,64,30.43,29.82,18,4,18,0.00
2014-1-4,29,25,18,24,18,11,82,76,70,30.06,29.73,22,5,22,0.00
2014-1-5,19,8,-6,12,-1,-17,74,66,59,30.13,30.02,13,6,13,0.00
2014-1-6,-6,-11,-14,-17,-20,-23,68,62,51,30.17,30.04,15,6,15,0.00
2014-1-7,4,-8,-16,-8,-16,-23,74,65,55,30.29,30.15,19,2,19,0.00
2014-1-8,18,-3,-14,3,-12,-22,77,66,49,30.52,30.28,8,0,8,0.00
2014-1-9,23,4,-18,18,-3,-26,81,71,65,30.54,30.12,9,1,9,0.00
2014-1-10,38,30,23,33,25,18,83,82,81,30.12,29.46,17,2,17,0.00
2014-1-11,37,34,32,32,29,27,83,83,82,29.46,29.39,11,2,11,0.00
2014-1-12,41,35,26,32,28,21,82,75,64,29.79,29.54,17,4,17,0.01
2014-1-13,46,36,25,35,28,18,82,75,62,29.73,29.51,11,1,11,0.00
2014-1-14,34,26,18,29,20,13,82,79,72,29.86,29.52,15,4,15,0.00
2014-1-15,18,13,8,13,7,2,80,76,70,30.06,29.74,16,3,16,0.00
2014-1-16,33,25,16,28,20,9,82,78,74,29.74,29.43,17,6,17,0.00
2014-1-17,18,14,6,13,7,0,79,75,69,29.93,29.68,12,2,12,0.00
2014-1-18,19,12,4,14,6,-2,81,78,75,29.90,29.75,7,1,7,0.00
2014-1-19,33,23,4,27,16,-1,82,76,65,29.82,29.48,17,4,17,0.00
2014-1-20,32,21,7,26,15,-2,81,77,68,30.16,29.57,9,2,9,0.00
2014-1-21,15,2,-9,1,-8,-17,72,64,52,30.33,30.16,11,2,11,0.00
2014-1-22,14,4,-6,6,-3,-13,75,71,65,30.17,29.85,14,3,14,0.00
2014-1-23,14,1,-7,1,-8,-16,71,65,53,30.56,30.17,15,4,15,0.00
2014-1-24,28,11,-9,23,3,-16,82,69,60,30.47,29.38,29,8,29,0.00
2014-1-25,31,16,3,25,3,-9,82,58,42,29.84,29.36,19,5,19,0.00
2014-1-26,25,13,4,17,5,-6,77,70,56,29.80,29.35,18,3,18,0.00
2014-1-27,4,-3,-11,-5,-14,-21,67,60,47,30.40,29.80,15,4,15,0.00
2014-1-28,5,-4,-15,-8,-14,-23,68,62,52,30.40,30.17,19,3,19,0.00
2014-1-29,24,10,-3,9,-2,-11,69,60,44,30.17,29.90,19,4,19,0.00
2014-1-30,30,26,21,24,16,8,80,67,51,29.90,29.58,21,7,21,0.00
2014-1-31,21,13,8,14,4,0,75,68,61,30.13,29.90,11,1,11,0.00
2014-2-1,27,17,8,19,11,2,80,77,73,30.08,29.88,0,0,0,0.00
2014-2-2,24,10,-8,10,1,-15,79,68,52,30.30,30.07,9,1,9,0.00
2014-2-3,23,3,-16,6,-7,-23,75,63,47,30.38,30.27,15,1,15,0.00
2014-2-4,23,12,-2,14,3,-9,78,69,62,30.43,30.15,6,0,6,0.01
2014-2-5,25,16,3,16,9,-4,80,72,59,30.42,30.11,10,3,10,0.00
2014-2-6,12,2,-3,-2,-6,-11,75,67,52,30.41,30.26,9,2,9,0.00
2014-2-7,15,3,-6,0,-6,-12,75,66,51,30.35,30.23,18,4,18,0.00
2014-2-8,15,5,-7,9,-2,-14,79,74,68,30.31,30.11,7,1,7,0.00
2014-2-9,22,9,-1,11,1,-7,80,70,56,30.29,30.08,9,2,9,0.00
2014-2-10,16,0,-11,1,-10,-20,71,61,47,30.48,30.28,8,2,8,0.00
2014-2-11,19,0,-13,3,-11,-21,71,60,46,30.53,30.35,8,1,8,0.00
2014-2-12,20,11,-10,12,3,-19,74,69,63,30.37,30.00,11,1,11,0.00
2014-2-13,29,23,18,22,14,9,78,68,58,30.00,29.49,20,4,20,0.00
2014-2-14,30,16,8,16,7,0,77,68,54,29.96,29.59,11,3,11,0.00
2014-2-15,24,11,-4,10,2,-11,77,68,55,30.08,29.94,14,2,14,0.00
2014-2-16,34,20,12,19,11,4,80,70,52,30.28,29.94,8,2,8,0.00
2014-2-17,24,21,16,18,16,9,82,80,74,30.26,29.70,20,3,20,0.00
2014-2-18,48,32,14,32,23,9,83,72,51,29.91,29.57,18,4,18,0.00
2014-2-19,47,36,27,30,26,20,80,68,47,29.95,29.64,11,2,11,0.00
2014-2-20,41,34,31,36,29,25,83,81,77,29.91,29.14,30,5,30,0.00
2014-2-21,35,25,19,29,16,9,80,68,55,29.78,29.19,31,9,31,0.00
2014-2-22,33,22,15,17,10,6,69,60,47,30.07,29.78,17,4,17,0.00
2014-2-23,28,16,9,10,5,1,69,61,46,30.20,30.06,20,4,20,0.00
2014-2-24,26,15,7,9,4,-1,71,62,48,30.26,30.17,12,2,12,0.00
2014-2-25,24,11,2,8,-2,-8,69,57,45,30.23,30.06,12,3,12,0.00
2014-2-26,14,5,-4,5,-6,-13,69,60,47,30.24,29.60,22,6,22,0.00
2014-2-27,16,4,-10,6,-10,-21,72,52,37,30.20,29.62,17,4,17,0.00
2014-2-28,24,10,-13,13,-2,-22,72,59,47,30.21,29.97,17,2,17,0.00
2014-3-1,21,14,8,15,6,0,77,70,57,30.38,30.03,10,2,10,0.00
2014-3-2,16,5,-7,1,-7,-19,74,57,42,30.47,30.32,9,3,9,0.00
2014-3-3,22,6,-11,6,-6,-21,68,57,46,30.53,30.36,14,2,14,0.00
2014-3-4,24,16,9,11,7,0,76,66,56,30.37,30.16,12,1,12,0.00
2014-3-5,26,17,7,13,8,0,79,69,54,30.48,30.28,13,2,13,0.00
2014-3-6,35,16,-2,20,6,-8,79,68,51,30.47,30.07,8,1,11,0.00
2014-3-7,44,28,6,28,18,0,81,68,49,30.08,29.83,18,2,18,0.00
2014-3-8,40,28,14,27,19,7,78,68,51,30.24,30.00,8,1,8,0.00
2014-3-9,38,26,8,31,18,2,80,72,62,30.23,29.73,21,4,21,0.00
2014-3-10,54,43,36,37,33,29,78,67,52,29.74,29.58,17,3,17,0.00
2014-3-11,49,38,33,37,31,27,82,76,62,29.81,29.66,8,1,8,0.00
2014-3-12,33,26,12,28,14,3,81,62,41,30.12,29.76,13,2,15,0.00
2014-3-13,38,23,7,32,16,1,80,73,61,30.12,29.76,22,3,22,0.00
2014-3-14,52,43,37,34,31,29,78,64,49,29.80,29.52,16,6,19,0.00
2014-3-15,41,32,24,29,22,16,74,67,52,30.32,29.79,15,3,15,0.00
2014-3-16,30,20,13,16,10,6,75,66,48,30.40,30.18,19,3,19,0.00
2014-3-17,39,24,9,20,12,3,80,63,37,30.18,29.75,16,3,16,0.00
2014-3-18,47,34,23,35,26,16,81,72,59,29.87,29.69,15,2,15,0.00
2014-3-19,38,35,33,33,29,24,82,79,71,29.95,29.56,13,4,13,0.00
2014-3-20,49,36,25,29,24,18,78,64,45,30.03,29.95,10,2,11,0.00
2014-3-21,47,34,21,36,27,16,82,75,65,30.02,29.70,17,3,17,0.00
2014-3-22,39,33,22,30,22,10,77,65,49,30.35,29.82,22,5,22,0.00
2014-3-23,31,22,15,13,9,6,70,58,44,30.45,30.32,18,2,18,0.00
2014-3-24,35,25,14,22,13,7,76,61,43,30.38,30.02,17,3,17,0.00
2014-3-25,28,22,16,19,10,4,78,61,46,30.23,30.00,23,4,23,0.00
2014-3-26,37,24,8,22,11,1,76,58,46,30.31,29.92,18,3,18,0.00
2014-3-27,48,39,34,42,32,21,82,75,51,29.92,29.40,17,5,17,0.00
2014-3-28,48,37,32,42,31,27,82,78,72,30.19,29.38,10,3,10,0.00
2014-3-29,48,35,26,30,24,16,82,67,44,30.26,30.15,18,2,18,0.00
2014-3-30,56,39,21,37,27,15,81,64,47,30.25,29.98,16,2,16,0.00
2014-3-31,65,53,40,39,35,30,72,53,33,30.01,29.62,27,7,27,0.00
2014-4-1,55,38,28,41,26,19,69,61,50,30.07,29.61,21,5,21,0.00
2014-4-2,53,37,26,33,25,19,78,62,45,30.19,30.07,11,2,11,0.00
2014-4-3,38,36,35,30,27,25,80,70,61,30.08,29.68,22,7,22,0.00
2014-4-4,41,36,33,36,29,24,82,77,70,29.98,29.42,17,5,17,0.00
2014-4-5,54,38,26,30,25,20,78,61,37,30.17,29.98,10,2,11,0.00
2014-4-6,60,42,24,35,28,18,79,59,36,30.13,29.90,18,2,18,0.00
2014-4-7,62,46,31,37,30,24,78,57,36,29.93,29.61,18,1,18,0.00
2014-4-8,64,49,38,42,37,30,81,66,42,29.93,29.62,10,3,10,0.00
2014-4-9,62,47,29,35,30,23,81,55,33,30.01,29.75,18,4,18,0.00
2014-4-10,66,55,39,41,32,22,58,43,27,29.93,29.62,21,4,21,0.00
2014-4-11,67,50,31,37,29,21,72,47,26,30.03,29.89,17,2,17,0.00
2014-4-12,62,48,41,53,38,27,81,69,54,30.02,29.67,16,2,16,0.00
2014-4-13,56,47,42,49,41,37,83,81,78,29.78,29.45,13,2,13,2.10
2014-4-14,44,35,28,39,29,22,83,80,76,30.00,29.40,14,4,14,0.37
2014-4-15,39,30,21,22,19,16,81,65,45,30.19,29.99,13,1,13,0.00
2014-4-16,52,38,24,31,25,18,80,61,42,30.28,30.07,26,6,26,0.00
2014-4-17,59,47,40,42,34,28,72,61,52,30.25,30.04,21,4,21,0.00
2014-4-18,62,43,31,40,32,25,80,66,40,30.37,30.25,14,2,14,0.02
2014-4-19,64,46,33,41,33,25,75,62,38,30.39,30.17,12,3,12,0.00
2014-4-20,79,59,40,49,42,33,78,55,33,30.20,29.96,34,2,34,0.00
2014-4-21,70,61,54,56,51,44,81,69,54,29.97,29.77,17,2,17,0.10
2014-4-22,62,49,35,48,34,26,73,57,37,30.09,29.80,13,5,13,0.02
2014-4-23,55,42,29,33,27,22,80,59,40,30.18,30.04,9,2,9,0.53
2014-4-24,59,47,35,41,34,26,80,63,44,30.11,29.67,21,4,21,0.12
2014-4-25,68,53,43,46,39,33,81,62,35,29.81,29.65,15,3,15,0.06
2014-4-26,57,46,38,39,33,29,75,63,49,30.04,29.80,16,3,16,0.00
2014-4-27,54,45,40,38,35,32,79,68,48,30.08,29.85,26,7,26,0.09
2014-4-28,49,44,40,41,37,34,81,77,66,29.87,29.53,24,7,24,0.53
2014-4-29,51,45,40,45,40,35,83,82,80,29.63,29.46,14,2,14,0.40
2014-4-30,50,46,42,44,40,35,82,78,73,29.75,29.63,14,3,14,0.00
2014-5-1,48,44,39,41,38,34,82,80,75,29.77,29.63,11,2,11,0.09
2014-5-2,51,48,45,42,41,40,81,77,69,29.77,29.63,14,2,14,0.02
2014-5-3,65,53,45,44,40,35,82,63,40,29.84,29.59,20,4,20,0.00
2014-5-4,65,51,42,38,33,29,68,51,31,30.08,29.83,11,3,11,0.00
2014-5-5,61,48,40,40,35,30,73,61,42,30.05,29.93,15,3,15,0.00
2014-5-6,64,50,37,44,37,29,77,62,46,30.03,29.88,21,4,21,0.00
2014-5-7,62,53,45,49,42,36,78,68,59,29.89,29.78,21,5,21,0.00
2014-5-8,87,75,48,65,59,43,81,60,43,29.80,29.68,49,6,49,0.00
2014-5-9,72,64,52,61,52,42,80,67,50,29.83,29.59,24,5,24,0.06
2014-5-10,80,60,42,51,44,36,81,59,35,29.94,29.83,49,2,49,0.00
2014-5-11,82,65,48,63,53,40,76,65,51,29.93,29.81,53,2,53,0.04
2014-5-12,79,70,63,70,63,56,81,78,67,29.88,29.74,28,3,28,1.51
2014-5-13,64,58,51,58,51,43,82,78,72,30.12,29.70,18,2,18,0.04
2014-5-14,59,50,44,46,42,38,81,72,57,30.17,30.00,9,0,9,0.00
2014-5-15,56,46,38,44,37,31,82,72,54,30.05,29.93,9,2,9,0.18
2014-5-16,52,44,38,37,34,32,80,69,52,30.05,29.99,5,0,6,0.00
2014-5-17,63,50,35,38,34,30,82,57,35,30.12,30.03,17,2,17,0.00
2014-5-18,73,59,47,44,39,33,61,48,33,30.17,30.09,23,4,23,0.00
2014-5-19,66,57,44,48,43,36,77,60,46,30.19,29.90,22,4,22,0.08
2014-5-20,88,71,57,68,58,46,79,65,49,29.91,29.76,48,4,48,0.02
2014-5-21,88,71,57,64,55,48,82,61,33,29.95,29.75,44,2,44,0.00
2014-5-22,77,63,49,53,49,42,79,62,42,30.11,29.95,35,1,35,0.00
2014-5-23,74,60,46,53,46,38,81,62,43,30.19,30.10,41,1,41,0.00
2014-5-24,78,60,42,51,45,36,80,58,37,30.23,30.09,40,2,40,0.00
2014-5-25,86,66,46,55,49,40,81,56,34,30.13,29.96,47,4,47,0.00
2014-5-26,86,71,59,69,61,49,81,71,53,30.00,29.86,45,4,45,0.43
2014-5-27,84,68,59,70,60,53,82,78,62,29.95,29.84,44,2,44,0.39
2014-5-28,75,61,52,57,50,45,82,69,49,30.06,29.90,37,1,37,0.06
2014-5-29,80,64,51,62,53,44,80,68,51,30.13,30.03,45,2,45,0.00
2014-5-30,85,66,49,62,53,44,82,64,38,30.18,30.10,44,2,44,0.00
2014-5-31,89,71,53,61,55,47,80,60,36,30.18,30.02,38,3,38,0.00
2014-6-1,88,73,62,69,61,51,80,67,52,30.04,29.80,40,3,40,0.20
2014-6-2,80,74,69,67,64,62,80,73,59,29.85,29.71,34,4,34,0.15
2014-6-3,82,70,63,62,56,52,76,62,41,29.93,29.75,43,4,43,0.00
2014-6-4,69,63,55,59,55,49,81,77,70,29.91,29.78,14,1,14,0.18
2014-6-5,79,64,48,55,49,42,83,61,40,29.98,29.89,46,3,46,0.02
2014-6-6,84,69,56,56,52,48,80,56,36,29.99,29.91,45,4,45,0.00
2014-6-7,82,68,53,62,55,46,80,65,46,29.99,29.82,42,3,42,0.02
2014-6-8,73,63,54,58,50,41,80,64,38,30.03,29.85,40,1,40,0.00
2014-6-9,79,63,50,61,50,41,73,63,53,30.04,29.90,46,2,46,0.00
2014-6-10,67,60,54,55,50,42,78,70,64,29.95,29.80,16,0,16,0.00
2014-6-11,62,59,56,57,54,51,83,82,78,29.81,29.69,20,0,20,0.76
2014-6-12,80,67,59,65,57,48,83,71,51,29.84,29.69,45,3,45,0.00
2014-6-13,77,62,51,49,46,43,75,57,35,30.01,29.84,45,3,45,0.00
2014-6-14,80,64,47,55,48,41,81,59,38,30.07,29.91,37,2,37,0.00
2014-6-15,83,72,60,66,57,46,71,60,54,29.95,29.73,31,4,42,0.00
2014-6-16,88,74,60,66,60,54,81,64,43,30.00,29.83,40,4,40,0.00
2014-6-17,73,70,66,64,63,60,82,77,71,29.82,29.72,19,2,19,1.04
2014-6-18,75,68,63,68,61,57,82,79,74,30.01,29.83,34,2,34,0.84
2014-6-19,72,66,62,64,60,56,83,81,76,30.09,29.98,24,1,24,0.39
2014-6-20,84,69,61,73,62,56,84,80,69,29.99,29.88,39,6,39,0.16
2014-6-21,71,64,59,65,59,54,84,82,79,29.96,29.81,16,0,16,0.02
2014-6-22,83,68,62,70,61,56,84,79,63,29.92,29.81,38,3,38,0.02
2014-6-23,82,69,60,71,62,54,83,79,68,29.85,29.77,41,5,41,0.10
2014-6-24,87,74,66,71,65,60,83,75,56,29.88,29.80,38,5,38,0.00
2014-6-25,72,65,57,64,58,52,83,80,75,30.03,29.87,32,1,32,0.00
2014-6-26,80,64,54,67,57,49,83,78,63,30.08,29.96,39,3,39,0.00
2014-6-27,85,72,58,70,63,53,83,74,57,30.01,29.89,40,2,40,0.00
2014-6-28,84,76,66,74,67,60,82,76,65,29.97,29.83,41,4,41,0.61
2014-6-29,82,75,66,70,66,60,82,75,64,29.91,29.77,38,4,38,0.11
2014-6-30,86,74,66,75,66,60,83,78,69,29.85,29.53,38,4,38,0.77
2014-7-1,77,70,64,64,61,58,83,75,64,29.72,29.60,36,2,36,0.04
2014-7-2,65,59,56,58,54,51,84,81,80,30.00,29.71,6,0,6,0.15
2014-7-3,78,64,56,60,54,51,84,71,46,30.16,29.98,45,5,45,0.00
2014-7-4,80,66,54,61,54,48,83,67,48,30.26,30.16,45,3,45,0.00
2014-7-5,76,66,55,60,56,49,82,69,54,30.23,29.98,34,2,34,0.00
2014-7-6,79,76,63,72,68,56,80,77,72,29.99,29.64,37,5,37,0.20
2014-7-7,85,76,69,68,65,63,83,71,52,29.72,29.61,45,7,45,0.00
2014-7-8,80,70,63,65,60,55,83,72,55,29.79,29.57,32,2,32,0.77
2014-7-9,78,66,56,61,55,51,83,70,50,30.03,29.79,36,2,36,0.02
2014-7-10,81,66,53,62,55,48,82,69,51,30.14,30.03,37,3,37,0.00
2014-7-11,77,68,56,62,57,50,81,69,53,30.17,30.03,38,2,38,0.00
2014-7-12,76,72,67,69,64,59,83,78,73,30.06,29.77,32,1,32,2.45
2014-7-13,84,71,62,68,62,56,84,75,55,29.89,29.81,40,4,40,0.00
2014-7-14,77,65,56,61,55,49,83,69,48,29.87,29.76,40,3,40,0.00
2014-7-15,65,59,53,58,52,48,83,78,70,29.95,29.82,8,0,8,0.10
2014-7-16,76,62,51,56,51,46,84,69,47,30.02,29.94,43,2,43,0.00
2014-7-17,76,64,50,58,52,44,83,67,46,30.09,30.01,42,3,42,0.00
2014-7-18,80,67,53,62,56,48,82,69,55,30.15,30.04,37,4,37,0.00
2014-7-19,80,69,58,61,57,52,82,68,48,30.08,29.98,40,5,40,0.00
2014-7-20,81,69,56,65,59,51,82,71,54,30.03,29.95,37,3,37,0.00
2014-7-21,86,73,60,70,63,54,82,71,58,30.06,29.98,41,4,41,0.00
2014-7-22,86,78,70,77,70,63,79,75,70,30.00,29.85,45,7,45,0.00
2014-7-23,76,67,56,65,56,48,81,69,55,30.14,29.99,33,2,33,0.00
2014-7-24,78,64,50,57,51,45,83,66,48,30.17,30.01,37,5,37,0.00
2014-7-25,73,64,53,61,55,47,81,73,65,30.04,29.85,36,1,36,0.00
2014-7-26,80,71,61,70,64,56,82,77,68,29.87,29.74,37,6,37,0.00
2014-7-27,80,70,62,68,62,54,84,74,54,29.91,29.67,37,2,37,0.15
2014-7-28,74,64,53,56,53,47,82,69,53,30.06,29.91,35,1,35,0.00
2014-7-29,79,66,56,60,56,50,82,70,53,30.02,29.93,41,3,41,0.30
2014-7-30,77,64,56,62,55,51,84,76,57,30.02,29.95,40,3,40,0.00
2014-7-31,80,67,55,65,58,50,83,73,57,29.98,29.95,41,4,41,0.00
2014-8-1,84,68,57,66,58,52,83,71,49,30.09,29.98,43,6,43,0.08
2014-8-2,85,68,55,67,59,50,84,73,54,30.13,30.05,41,5,41,0.00
2014-8-3,86,72,59,68,62,54,83,72,52,30.11,30.01,43,5,43,0.00
2014-8-4,80,68,62,69,62,57,84,79,65,30.07,30.00,45,3,45,0.29
2014-8-5,82,69,62,68,61,56,85,76,61,30.04,29.99,41,5,41,0.00
2014-8-6,81,67,53,62,55,48,83,68,46,30.07,30.01,40,7,40,0.00
2014-8-7,82,67,54,63,56,49,83,69,51,30.09,30.01,43,3,43,0.00
2014-8-8,83,69,58,65,57,52,83,68,44,30.08,30.03,39,2,39,0.00
2014-8-9,81,69,60,65,58,54,82,69,48,30.09,30.04,39,3,39,0.00
2014-8-10,83,70,60,65,60,54,82,70,47,30.05,29.94,37,3,37,0.00
2014-8-11,81,70,64,70,63,58,84,79,66,29.96,29.74,41,3,41,0.75
2014-8-12,70,62,56,61,55,50,84,79,67,29.95,29.76,11,1,11,0.04
2014-8-13,80,64,52,65,56,47,84,75,57,30.02,29.94,47,2,47,0.00
2014-8-14,76,62,52,56,51,47,83,69,42,30.11,30.01,44,2,44,0.00
2014-8-15,80,63,48,62,53,42,82,71,53,30.07,29.90,41,2,41,0.00
2014-8-16,83,71,58,69,62,53,83,75,63,29.92,29.82,40,4,40,0.00
2014-8-17,78,67,60,65,59,54,82,76,63,29.99,29.90,40,1,40,0.00
2014-8-18,80,69,59,69,61,53,84,77,66,29.94,29.72,42,3,42,0.00
2014-8-19,82,72,65,71,64,59,84,78,68,29.75,29.64,38,1,38,1.11
2014-8-20,84,72,62,70,64,56,84,76,62,29.93,29.75,45,4,45,0.00
2014-8-21,76,70,65,69,65,60,84,82,81,29.98,29.86,21,0,21,0.18
2014-8-22,86,76,70,77,70,65,85,81,71,29.97,29.86,45,7,45,0.00
2014-8-23,78,73,70,71,67,64,85,83,79,29.99,29.82,34,2,34,0.00
2014-8-24,85,75,69,74,68,64,85,79,69,29.98,29.93,46,5,46,0.00
2014-8-25,77,71,68,72,66,63,85,83,81,30.05,29.91,18,0,18,0.00
2014-8-26,79,68,61,67,62,56,85,81,66,30.15,29.97,36,1,36,0.00
2014-8-27,78,68,60,65,59,54,84,76,61,30.13,30.06,41,2,41,0.00
2014-8-28,73,65,56,60,56,52,84,75,60,30.13,30.00,29,1,29,0.00
2014-8-29,82,73,64,73,66,57,83,79,72,30.00,29.80,39,3,39,0.02
2014-8-30,77,72,67,68,65,62,83,80,74,29.87,29.75,42,3,42,0.00
2014-8-31,85,72,61,70,64,57,85,75,57,29.91,29.79,40,4,40,0.00